createdAt,value
2018-10-02T00:01:11.614Z,101108.00
2018-10-02T00:03:41.430Z,101099.00
2018-10-02T00:06:11.466Z,101105.00
2018-10-02T00:08:41.710Z,101109.00
2018-10-02T00:11:16.222Z,101096.00
2018-10-02T00:13:51.065Z,101090.00
2018-10-02T00:16:20.730Z,101106.00
2018-10-02T00:18:50.820Z,101110.00
2018-10-02T00:21:20.875Z,101101.00
2018-10-02T00:23:50.524Z,101102.00
2018-10-02T00:26:20.450Z,101102.00
2018-10-02T00:28:50.408Z,101108.00
2018-10-02T00:31:20.513Z,101101.00
2018-10-02T00:33:50.106Z,101108.00
2018-10-02T00:36:19.948Z,101105.00
2018-10-02T00:38:49.582Z,101103.00
2018-10-02T00:41:19.618Z,101091.00
2018-10-02T00:43:48.973Z,101088.00
2018-10-02T00:46:18.767Z,101099.00
2018-10-02T00:48:48.742Z,101093.00
2018-10-02T00:51:18.962Z,101099.00
2018-10-02T00:53:48.829Z,101088.00
2018-10-02T00:56:18.084Z,101094.00
2018-10-02T00:58:47.790Z,101087.00
2018-10-02T01:01:17.933Z,101090.00
2018-10-02T01:03:47.513Z,101090.00
2018-10-02T01:06:17.147Z,101096.00
2018-10-02T01:08:46.514Z,101079.00
2018-10-02T01:11:16.172Z,101077.00
2018-10-02T01:13:45.820Z,101085.00
2018-10-02T01:16:15.383Z,101087.00
2018-10-02T01:18:44.790Z,101086.00
2018-10-02T01:21:14.366Z,101086.00
2018-10-02T01:23:44.100Z,101076.00
2018-10-02T01:26:13.804Z,101084.00
2018-10-02T01:28:43.428Z,101077.00
2018-10-02T01:31:13.610Z,101072.00
2018-10-02T01:33:44.554Z,101079.00
2018-10-02T01:36:14.186Z,101073.00
2018-10-02T01:38:43.883Z,101081.00
2018-10-02T01:41:13.473Z,101080.00
2018-10-02T01:43:44.322Z,101073.00
2018-10-02T01:46:14.116Z,101070.00
2018-10-02T01:48:43.980Z,101067.00
2018-10-02T01:51:14.428Z,101071.00
2018-10-02T01:53:45.294Z,101075.00
2018-10-02T01:56:15.207Z,101058.00
2018-10-02T01:58:44.962Z,101058.00
2018-10-02T02:01:14.535Z,101059.00
2018-10-02T02:03:44.372Z,101058.00
2018-10-02T02:06:14.310Z,101050.00
2018-10-02T02:08:43.958Z,101051.00
2018-10-02T02:11:13.506Z,101052.00
2018-10-02T02:13:43.057Z,101047.00
2018-10-02T02:16:12.502Z,101053.00
2018-10-02T02:18:42.952Z,101053.00
2018-10-02T02:21:12.735Z,101046.00
2018-10-02T02:23:42.149Z,101044.00
2018-10-02T02:26:11.935Z,101039.00
2018-10-02T02:28:41.984Z,101023.00
2018-10-02T02:31:11.714Z,101007.00
2018-10-02T02:33:41.233Z,101018.00
2018-10-02T02:36:10.989Z,101024.00
2018-10-02T02:38:40.953Z,101023.00
2018-10-02T02:41:11.189Z,101012.00
2018-10-02T02:43:40.573Z,101017.00
2018-10-02T02:46:10.536Z,101021.00
2018-10-02T02:48:46.113Z,101020.00
2018-10-02T02:51:35.182Z,101018.00
2018-10-02T02:54:05.063Z,101022.00
2018-10-02T02:56:35.059Z,101010.00
2018-10-02T02:59:04.909Z,101022.00
2018-10-02T03:01:34.810Z,101023.00
2018-10-02T03:04:04.799Z,101023.00
2018-10-02T03:06:34.142Z,101025.00
2018-10-02T03:09:03.839Z,101016.00
2018-10-02T03:11:33.323Z,101011.00
2018-10-02T03:14:02.991Z,101008.00
2018-10-02T03:16:32.666Z,101004.00
2018-10-02T03:19:02.673Z,101004.00
2018-10-02T03:21:32.573Z,100999.00
2018-10-02T03:24:02.495Z,100989.00
2018-10-02T03:26:32.055Z,100987.00
2018-10-02T03:29:01.527Z,100981.00
2018-10-02T03:31:31.287Z,100983.00
2018-10-02T03:34:01.029Z,100983.00
2018-10-02T03:36:30.987Z,100983.00
2018-10-02T03:39:00.587Z,100985.00
2018-10-02T03:41:30.065Z,100977.00
2018-10-02T03:43:59.491Z,100977.00
2018-10-02T03:46:29.841Z,100978.00
2018-10-02T03:48:59.398Z,100977.00
2018-10-02T03:51:29.069Z,100975.00
2018-10-02T03:53:59.136Z,100983.00
2018-10-02T03:56:29.355Z,100967.00
2018-10-02T03:58:59.137Z,100983.00
2018-10-02T04:01:28.933Z,100977.00
2018-10-02T04:03:58.469Z,100990.00
2018-10-02T04:06:28.087Z,100980.00
2018-10-02T04:08:57.829Z,100979.00
2018-10-02T04:11:27.597Z,100990.00
2018-10-02T04:13:57.576Z,100973.00
2018-10-02T04:16:27.091Z,100961.00
2018-10-02T04:18:57.028Z,100967.00
2018-10-02T04:21:31.887Z,100963.00
2018-10-02T04:24:02.233Z,100952.00
2018-10-02T04:26:32.057Z,100946.00
2018-10-02T04:29:02.103Z,100936.00
2018-10-02T04:31:32.495Z,100940.00
2018-10-02T04:34:02.943Z,100949.00
2018-10-02T04:36:32.503Z,100927.00
2018-10-02T04:39:03.116Z,100939.00
2018-10-02T04:41:32.871Z,100937.00
2018-10-02T04:44:02.535Z,100939.00
2018-10-02T04:46:33.372Z,100929.00
2018-10-02T04:49:03.373Z,100928.00
2018-10-02T04:51:33.119Z,100926.00
2018-10-02T04:54:02.502Z,100926.00
2018-10-02T04:56:32.034Z,100923.00
2018-10-02T04:59:01.607Z,100934.00
2018-10-02T05:01:30.868Z,100940.00
2018-10-02T05:04:00.206Z,100925.00
2018-10-02T05:06:29.708Z,100919.00
2018-10-02T05:09:01.995Z,100937.00
2018-10-02T05:11:31.733Z,100924.00
2018-10-02T05:14:00.918Z,100928.00
2018-10-02T05:16:30.278Z,100939.00
2018-10-02T05:18:59.972Z,100947.00
2018-10-02T05:21:29.897Z,100941.00
2018-10-02T05:24:00.350Z,100935.00
2018-10-02T05:26:31.160Z,100942.00
2018-10-02T05:29:02.034Z,100948.00
2018-10-02T05:31:32.170Z,100952.00
2018-10-02T05:34:02.264Z,100949.00
2018-10-02T05:36:32.907Z,100957.00
2018-10-02T05:39:03.882Z,100949.00
2018-10-02T05:41:34.379Z,100947.00
2018-10-02T05:44:05.207Z,100947.00
2018-10-02T05:46:36.054Z,100946.00
2018-10-02T05:49:07.362Z,100947.00
2018-10-02T05:51:38.113Z,100943.00
2018-10-02T05:54:08.841Z,100944.00
2018-10-02T05:56:39.805Z,100933.00
2018-10-02T05:59:10.299Z,100933.00
2018-10-02T06:01:41.204Z,100940.00
2018-10-02T06:04:12.028Z,100937.00
2018-10-02T06:06:42.578Z,100954.00
2018-10-02T06:09:14.256Z,100946.00
2018-10-02T06:11:44.803Z,100944.00
2018-10-02T06:14:14.946Z,100941.00
2018-10-02T06:16:45.395Z,100944.00
2018-10-02T06:19:16.068Z,100932.00
2018-10-02T06:21:46.654Z,100943.00
2018-10-02T06:24:16.306Z,100934.00
2018-10-02T06:26:46.282Z,100950.00
2018-10-02T06:29:16.663Z,100952.00
2018-10-02T06:31:48.264Z,100945.00
2018-10-02T06:34:19.788Z,100948.00
2018-10-02T06:36:50.315Z,100949.00
2018-10-02T06:39:21.305Z,100941.00
2018-10-02T06:41:51.761Z,100942.00
2018-10-02T06:44:22.372Z,100938.00
2018-10-02T06:46:53.837Z,100948.00
2018-10-02T06:49:24.996Z,100933.00
2018-10-02T06:51:55.401Z,100937.00
2018-10-02T06:54:25.859Z,100946.00
2018-10-02T06:56:56.441Z,100938.00
2018-10-02T06:59:26.603Z,100923.00
2018-10-02T07:01:57.272Z,100916.00
2018-10-02T07:04:27.689Z,100920.00
2018-10-02T07:06:58.497Z,100902.00
2018-10-02T07:09:29.128Z,100909.00
2018-10-02T07:11:59.272Z,100906.00
2018-10-02T07:14:29.907Z,100909.00
2018-10-02T07:17:00.172Z,100918.00
2018-10-02T07:19:31.098Z,100905.00
2018-10-02T07:22:01.827Z,100913.00
2018-10-02T07:24:32.254Z,100912.00
2018-10-02T07:27:02.852Z,100912.00
2018-10-02T07:29:33.679Z,100902.00
2018-10-02T07:32:04.671Z,100886.00
2018-10-02T07:34:35.178Z,100890.00
2018-10-02T07:37:05.834Z,100875.00
2018-10-02T07:39:36.208Z,100869.00
2018-10-02T07:42:06.591Z,100875.00
2018-10-02T07:44:36.620Z,100868.00
2018-10-02T07:47:07.195Z,100865.00
2018-10-02T07:49:37.547Z,100869.00
2018-10-02T07:52:08.212Z,100855.00
2018-10-02T07:54:38.784Z,100849.00
2018-10-02T07:57:09.353Z,100843.00
2018-10-02T07:59:39.673Z,100844.00
2018-10-02T08:02:10.405Z,100845.00
2018-10-02T08:04:40.780Z,100823.00
2018-10-02T08:07:11.349Z,100827.00
2018-10-02T08:09:44.113Z,100818.00
2018-10-02T08:12:15.541Z,100817.00
2018-10-02T08:14:45.995Z,100819.00
2018-10-02T08:17:17.260Z,100814.00
2018-10-02T08:19:47.652Z,100809.00
2018-10-02T08:22:18.408Z,100798.00
2018-10-02T08:24:49.019Z,100802.00
2018-10-02T08:27:20.856Z,100797.00
2018-10-02T08:29:51.592Z,100780.00
2018-10-02T08:32:21.685Z,100762.00
2018-10-02T08:34:52.871Z,100768.00
2018-10-02T08:37:23.928Z,100765.00
2018-10-02T08:39:54.859Z,100750.00
2018-10-02T08:42:24.859Z,100748.00
2018-10-02T08:44:56.068Z,100754.00
2018-10-02T08:47:27.541Z,100752.00
2018-10-02T08:49:58.689Z,100744.00
2018-10-02T08:52:29.654Z,100734.00
2018-10-02T08:54:59.890Z,100739.00
2018-10-02T08:57:30.350Z,100728.00
2018-10-02T09:00:01.136Z,100716.00
2018-10-02T09:02:31.269Z,100721.00
2018-10-02T09:05:03.029Z,100708.00
2018-10-02T09:07:33.391Z,100710.00
2018-10-02T09:10:04.885Z,100702.00
2018-10-02T09:12:35.158Z,100695.00
2018-10-02T09:15:12.154Z,100706.00
2018-10-02T09:17:37.279Z,100712.00
2018-10-02T09:20:08.419Z,100703.00
2018-10-02T09:22:38.842Z,100701.00
2018-10-02T09:25:09.879Z,100684.00
2018-10-02T09:27:39.983Z,100692.00
2018-10-02T09:30:16.418Z,100691.00
2018-10-02T09:32:53.303Z,100691.00
2018-10-02T09:35:28.740Z,100693.00
2018-10-02T09:38:05.241Z,100683.00
2018-10-02T09:40:40.975Z,100678.00
2018-10-02T09:43:16.248Z,100675.00
2018-10-02T09:45:48.585Z,100674.00
2018-10-02T09:48:19.200Z,100675.00
2018-10-02T09:50:49.767Z,100675.00
2018-10-02T09:53:20.548Z,100680.00
2018-10-02T09:55:51.810Z,100669.00
2018-10-02T09:58:22.886Z,100667.00
2018-10-02T10:00:58.446Z,100658.00
2018-10-02T10:03:28.960Z,100641.00
2018-10-02T10:05:59.435Z,100638.00
2018-10-02T10:08:29.762Z,100640.00
2018-10-02T10:11:01.275Z,100638.00
2018-10-02T10:13:33.061Z,100641.00
2018-10-02T10:16:04.219Z,100637.00
2018-10-02T10:18:35.408Z,100635.00
2018-10-02T10:21:06.351Z,100639.00
2018-10-02T10:23:37.399Z,100630.00
2018-10-02T10:26:07.454Z,100644.00
2018-10-02T10:28:38.323Z,100640.00
2018-10-02T10:31:08.729Z,100654.00
2018-10-02T10:33:39.522Z,100636.00
2018-10-02T10:36:09.439Z,100642.00
2018-10-02T10:38:40.071Z,100631.00
2018-10-02T10:41:10.796Z,100623.00
2018-10-02T10:43:41.235Z,100627.00
2018-10-02T10:46:11.713Z,100617.00
2018-10-02T10:48:42.725Z,100609.00
2018-10-02T10:51:13.858Z,100609.00
2018-10-02T10:53:44.631Z,100600.00
2018-10-02T10:56:15.241Z,100599.00
2018-10-02T10:58:46.161Z,100597.00
2018-10-02T11:01:16.640Z,100586.00
2018-10-02T11:03:47.532Z,100577.00
2018-10-02T11:06:18.155Z,100577.00
2018-10-02T11:08:48.396Z,100583.00
2018-10-02T11:11:18.781Z,100587.00
2018-10-02T11:13:49.365Z,100570.00
2018-10-02T11:16:19.205Z,100563.00
2018-10-02T11:18:49.505Z,100569.00
2018-10-02T11:21:19.701Z,100556.00
2018-10-02T11:23:49.794Z,100563.00
2018-10-02T11:26:20.445Z,100551.00
2018-10-02T11:28:51.083Z,100554.00
2018-10-02T11:31:21.707Z,100547.00
2018-10-02T11:33:52.383Z,100552.00
2018-10-02T11:36:23.110Z,100534.00
2018-10-02T11:38:53.836Z,100543.00
2018-10-02T11:41:24.182Z,100519.00
2018-10-02T11:43:55.055Z,100534.00
2018-10-02T11:46:26.020Z,100511.00
2018-10-02T11:48:56.740Z,100506.00
2018-10-02T11:51:26.936Z,100507.00
2018-10-02T11:53:57.614Z,100498.00
2018-10-02T11:56:28.088Z,100494.00
2018-10-02T11:58:58.878Z,100493.00
2018-10-02T12:01:29.794Z,100487.00
2018-10-02T12:04:00.460Z,100482.00
2018-10-02T12:06:31.178Z,100480.00
2018-10-02T12:09:02.269Z,100474.00
2018-10-02T12:11:32.093Z,100471.00
2018-10-02T12:14:02.188Z,100476.00
2018-10-02T12:16:33.552Z,100461.00
2018-10-02T12:19:04.892Z,100463.00
2018-10-02T12:21:34.938Z,100458.00
2018-10-02T12:24:05.922Z,100451.00
2018-10-02T12:26:37.184Z,100439.00
2018-10-02T12:29:07.680Z,100432.00
2018-10-02T12:31:38.215Z,100438.00
2018-10-02T12:34:08.980Z,100426.00
2018-10-02T12:36:39.376Z,100430.00
2018-10-02T12:39:09.945Z,100423.00
2018-10-02T12:41:41.247Z,100421.00
2018-10-02T12:44:12.214Z,100423.00
2018-10-02T12:46:43.485Z,100422.00
2018-10-02T12:49:14.277Z,100426.00
2018-10-02T12:51:44.588Z,100425.00
2018-10-02T12:54:15.003Z,100415.00
2018-10-02T12:56:45.297Z,100410.00
2018-10-02T12:59:15.238Z,100405.00
2018-10-02T13:01:45.917Z,100402.00
2018-10-02T13:04:16.280Z,100417.00
2018-10-02T13:06:47.156Z,100417.00
2018-10-02T13:09:17.897Z,100415.00
2018-10-02T13:11:48.456Z,100407.00
2018-10-02T13:14:19.302Z,100401.00
2018-10-02T13:16:49.739Z,100410.00
2018-10-02T13:19:19.836Z,100395.00
2018-10-02T13:21:49.884Z,100384.00
2018-10-02T13:24:20.749Z,100389.00
2018-10-02T13:26:51.156Z,100396.00
2018-10-02T13:29:21.999Z,100388.00
2018-10-02T13:31:52.492Z,100388.00
2018-10-02T13:34:22.925Z,100400.00
2018-10-02T13:36:53.812Z,100384.00
2018-10-02T13:39:24.296Z,100396.00
2018-10-02T13:41:54.274Z,100397.00
2018-10-02T13:44:24.333Z,100403.00
2018-10-02T13:46:54.684Z,100404.00
2018-10-02T13:49:24.892Z,100401.00
2018-10-02T13:51:55.452Z,100402.00
2018-10-02T13:54:26.030Z,100398.00
2018-10-02T13:56:56.368Z,100404.00
2018-10-02T13:59:27.288Z,100397.00
2018-10-02T14:01:57.638Z,100387.00
2018-10-02T14:04:28.350Z,100395.00
2018-10-02T14:06:58.691Z,100392.00
2018-10-02T14:09:30.466Z,100386.00
2018-10-02T14:12:00.951Z,100388.00
2018-10-02T14:14:32.290Z,100381.00
2018-10-02T14:17:02.994Z,100386.00
2018-10-02T14:19:33.861Z,100392.00
2018-10-02T14:22:05.706Z,100393.00
2018-10-02T14:24:36.201Z,100405.00
2018-10-02T14:27:07.237Z,100383.00
2018-10-02T14:29:38.018Z,100400.00
2018-10-02T14:32:08.393Z,100399.00
2018-10-02T14:34:39.842Z,100387.00
2018-10-02T14:37:09.885Z,100393.00
2018-10-02T14:39:39.819Z,100399.00
2018-10-02T14:42:10.370Z,100389.00
2018-10-02T14:44:40.711Z,100387.00
2018-10-02T14:47:12.866Z,100389.00
2018-10-02T14:49:43.711Z,100400.00
2018-10-02T14:52:14.674Z,100402.00
2018-10-02T14:54:45.044Z,100397.00
2018-10-02T14:57:15.572Z,100398.00
2018-10-02T14:59:45.930Z,100392.00
2018-10-02T15:02:16.115Z,100393.00
2018-10-02T15:04:46.490Z,100385.00
2018-10-02T15:07:17.077Z,100381.00
2018-10-02T15:09:47.534Z,100381.00
2018-10-02T15:12:18.565Z,100391.00
2018-10-02T15:14:49.129Z,100381.00
2018-10-02T15:17:19.725Z,100385.00
2018-10-02T15:19:50.596Z,100389.00
2018-10-02T15:22:21.075Z,100380.00
2018-10-02T15:24:51.303Z,100385.00
2018-10-02T15:27:21.311Z,100386.00
2018-10-02T15:29:51.620Z,100386.00
2018-10-02T15:32:21.782Z,100391.00
2018-10-02T15:34:53.225Z,100388.00
2018-10-02T15:37:25.578Z,100396.00
2018-10-02T15:39:55.956Z,100384.00
2018-10-02T15:42:26.452Z,100393.00
2018-10-02T15:44:56.901Z,100379.00
2018-10-02T15:47:27.466Z,100397.00
2018-10-02T15:49:57.493Z,100394.00
2018-10-02T15:52:28.591Z,100399.00
2018-10-02T15:54:58.481Z,100391.00
2018-10-02T15:57:29.203Z,100403.00
2018-10-02T15:59:59.686Z,100381.00
2018-10-02T16:02:30.152Z,100380.00
2018-10-02T16:05:01.521Z,100387.00
2018-10-02T16:07:32.423Z,100387.00
2018-10-02T16:10:02.774Z,100384.00
2018-10-02T16:12:33.503Z,100394.00
2018-10-02T16:15:04.330Z,100396.00
2018-10-02T16:17:34.265Z,100389.00
2018-10-02T16:20:05.163Z,100396.00
2018-10-02T16:22:35.953Z,100393.00
2018-10-02T16:25:07.089Z,100394.00
2018-10-02T16:27:38.018Z,100393.00
2018-10-02T16:30:08.651Z,100392.00
2018-10-02T16:32:39.069Z,100383.00
2018-10-02T16:35:09.109Z,100388.00
2018-10-02T16:37:39.859Z,100384.00
2018-10-02T16:40:09.965Z,100384.00
2018-10-02T16:42:39.872Z,100403.00
2018-10-02T16:45:09.899Z,100407.00
2018-10-02T16:47:39.301Z,100378.00
2018-10-02T16:50:08.899Z,100404.00
2018-10-02T16:52:38.239Z,100423.00
2018-10-02T16:55:08.373Z,100428.00
2018-10-02T16:57:37.506Z,100451.00
2018-10-02T17:00:07.649Z,100447.00
2018-10-02T17:02:36.879Z,100452.00
2018-10-02T17:05:06.306Z,100471.00
2018-10-02T17:07:35.719Z,100455.00
2018-10-02T17:10:05.004Z,100470.00
2018-10-02T17:12:34.754Z,100476.00
2018-10-02T17:15:04.191Z,100479.00
2018-10-02T17:17:33.657Z,100476.00
2018-10-02T17:20:03.317Z,100474.00
2018-10-02T17:22:32.967Z,100476.00
2018-10-02T17:25:02.679Z,100479.00
2018-10-02T17:27:32.668Z,100474.00
2018-10-02T17:30:03.285Z,100478.00
2018-10-02T17:32:33.717Z,100486.00
2018-10-02T17:35:04.114Z,100491.00
2018-10-02T17:37:34.807Z,100489.00
2018-10-02T17:40:04.896Z,100495.00
2018-10-02T17:42:35.686Z,100485.00
2018-10-02T17:45:05.679Z,100503.00
2018-10-02T17:47:35.672Z,100489.00
2018-10-02T17:50:05.663Z,100491.00
2018-10-02T17:52:35.507Z,100493.00
2018-10-02T17:55:05.620Z,100493.00
2018-10-02T17:57:35.994Z,100509.00
2018-10-02T18:00:06.151Z,100504.00
2018-10-02T18:02:36.173Z,100505.00
2018-10-02T18:05:06.571Z,100512.00
2018-10-02T18:07:36.549Z,100506.00
2018-10-02T18:10:06.275Z,100524.00
2018-10-02T18:12:36.575Z,100527.00
2018-10-02T18:15:06.597Z,100521.00
2018-10-02T18:17:36.586Z,100526.00
2018-10-02T18:20:06.496Z,100524.00
2018-10-02T18:22:36.252Z,100527.00
2018-10-02T18:25:06.146Z,100524.00
2018-10-02T18:27:35.932Z,100536.00
2018-10-02T18:30:06.111Z,100521.00
2018-10-02T18:32:36.196Z,100532.00
2018-10-02T18:35:05.812Z,100540.00
2018-10-02T18:37:35.457Z,100531.00
2018-10-02T18:40:05.247Z,100541.00
2018-10-02T18:42:35.401Z,100526.00
2018-10-02T18:45:05.605Z,100535.00
2018-10-02T18:47:35.854Z,100533.00
2018-10-02T18:50:05.853Z,100540.00
2018-10-02T18:52:35.521Z,100530.00
2018-10-02T18:55:05.341Z,100528.00
2018-10-02T18:57:35.315Z,100530.00
2018-10-02T19:00:05.251Z,100535.00
2018-10-02T19:02:35.010Z,100546.00
2018-10-02T19:05:06.109Z,100534.00
2018-10-02T19:07:36.033Z,100538.00
2018-10-02T19:10:05.982Z,100538.00
2018-10-02T19:12:35.738Z,100532.00
2018-10-02T19:15:05.699Z,100521.00
2018-10-02T19:17:35.513Z,100525.00
2018-10-02T19:20:10.413Z,100528.00
2018-10-02T19:22:40.426Z,100540.00
2018-10-02T19:25:15.465Z,100536.00
2018-10-02T19:27:45.788Z,100539.00
2018-10-02T19:30:20.602Z,100547.00
2018-10-02T19:32:50.237Z,100539.00
2018-10-02T19:35:20.172Z,100546.00
2018-10-02T19:37:55.470Z,100549.00
2018-10-02T19:40:25.589Z,100545.00
2018-10-02T19:42:55.589Z,100550.00
2018-10-02T19:45:30.805Z,100545.00
2018-10-02T19:48:01.353Z,100559.00
2018-10-02T19:50:31.260Z,100545.00
2018-10-02T19:53:01.194Z,100560.00
2018-10-02T19:55:31.675Z,100554.00
2018-10-02T19:58:02.240Z,100569.00
2018-10-02T20:00:32.211Z,100559.00
2018-10-02T20:03:02.157Z,100566.00
2018-10-02T20:05:31.894Z,100553.00
2018-10-02T20:08:01.864Z,100558.00
2018-10-02T20:10:32.177Z,100563.00
2018-10-02T20:13:02.098Z,100561.00
2018-10-02T20:15:32.277Z,100557.00
2018-10-02T20:18:01.822Z,100561.00
2018-10-02T20:20:31.626Z,100565.00
2018-10-02T20:23:01.658Z,100562.00
2018-10-02T20:25:31.044Z,100571.00
2018-10-02T20:28:00.772Z,100566.00
2018-10-02T20:30:31.312Z,100563.00
2018-10-02T20:33:00.886Z,100565.00
2018-10-02T20:35:30.623Z,100571.00
2018-10-02T20:38:00.719Z,100573.00
2018-10-02T20:40:31.515Z,100570.00
2018-10-02T20:43:01.123Z,100567.00
2018-10-02T20:45:30.757Z,100577.00
2018-10-02T20:48:00.677Z,100583.00
2018-10-02T20:50:31.339Z,100586.00
2018-10-02T20:53:01.078Z,100598.00
2018-10-02T20:55:30.957Z,100576.00
2018-10-02T20:58:01.193Z,100597.00
2018-10-02T21:00:30.930Z,100589.00
2018-10-02T21:03:01.080Z,100595.00
2018-10-02T21:05:31.031Z,100600.00
2018-10-02T21:08:00.810Z,100593.00
2018-10-02T21:10:30.745Z,100595.00
2018-10-02T21:13:00.500Z,100608.00
2018-10-02T21:15:30.577Z,100599.00
2018-10-02T21:18:02.168Z,100602.00
2018-10-02T21:20:32.360Z,100603.00
2018-10-02T21:23:02.250Z,100602.00
2018-10-02T21:25:32.876Z,100601.00
2018-10-02T21:28:03.112Z,100593.00
2018-10-02T21:30:33.378Z,100604.00
2018-10-02T21:33:03.412Z,100609.00
2018-10-02T21:35:33.360Z,100621.00
2018-10-02T21:38:03.251Z,100617.00
2018-10-02T21:40:33.453Z,100600.00
2018-10-02T21:43:03.461Z,100603.00
2018-10-02T21:45:34.015Z,100599.00
2018-10-02T21:48:04.091Z,100602.00
2018-10-02T21:50:34.045Z,100608.00
2018-10-02T21:53:04.650Z,100605.00
2018-10-02T21:55:34.913Z,100611.00
2018-10-02T21:58:05.516Z,100598.00
2018-10-02T22:00:35.225Z,100589.00
2018-10-02T22:03:06.316Z,100595.00
2018-10-02T22:05:35.936Z,100593.00
2018-10-02T22:08:05.370Z,100604.00
2018-10-02T22:10:36.014Z,100609.00
2018-10-02T22:13:06.654Z,100608.00
2018-10-02T22:15:36.425Z,100617.00
2018-10-02T22:18:06.564Z,100614.00
2018-10-02T22:20:36.657Z,100622.00
2018-10-02T22:23:06.385Z,100616.00
2018-10-02T22:25:36.136Z,100616.00
2018-10-02T22:28:06.409Z,100638.00
2018-10-02T22:30:36.287Z,100636.00
2018-10-02T22:33:05.967Z,100631.00
2018-10-02T22:35:35.800Z,100631.00
2018-10-02T22:38:05.707Z,100629.00
2018-10-02T22:40:35.533Z,100630.00
2018-10-02T22:43:05.203Z,100649.00
2018-10-02T22:45:34.913Z,100644.00
2018-10-02T22:48:04.823Z,100632.00
2018-10-02T22:50:35.217Z,100645.00
2018-10-02T22:53:04.817Z,100640.00
2018-10-02T22:55:34.422Z,100634.00
2018-10-02T22:58:04.341Z,100639.00
2018-10-02T23:00:33.545Z,100637.00
2018-10-02T23:03:03.194Z,100644.00
2018-10-02T23:05:33.128Z,100651.00
2018-10-02T23:08:03.030Z,100633.00
2018-10-02T23:10:32.611Z,100652.00
2018-10-02T23:13:02.917Z,100662.00
2018-10-02T23:15:32.741Z,100656.00
2018-10-02T23:18:02.494Z,100650.00
2018-10-02T23:20:32.164Z,100656.00
2018-10-02T23:23:01.581Z,100659.00
2018-10-02T23:25:31.796Z,100665.00
2018-10-02T23:28:02.222Z,100666.00
2018-10-02T23:30:31.985Z,100658.00
2018-10-02T23:33:02.376Z,100663.00
2018-10-02T23:35:32.232Z,100662.00
2018-10-02T23:38:01.893Z,100662.00
2018-10-02T23:40:32.428Z,100660.00
2018-10-02T23:43:02.128Z,100660.00
2018-10-02T23:45:32.008Z,100664.00
2018-10-02T23:48:01.640Z,100658.00
2018-10-02T23:50:31.795Z,100664.00
2018-10-02T23:53:01.366Z,100662.00
2018-10-02T23:55:31.408Z,100664.00
2018-10-02T23:58:01.089Z,100651.00
